sensor_id;sensor_type;location;lat;lon;timestamp;P1;durP1;ratioP1;P2;durP2;ratioP2
75016;SDS011;63577;39.766;2.720;2023-03-04T00:01:52;37.50;;;23.00;;
75016;SDS011;63577;39.766;2.720;2023-03-04T00:04:18;32.50;;;20.30;;
75016;SDS011;63577;39.766;2.720;2023-03-04T00:06:43;29.60;;;18.20;;
75016;SDS011;63577;39.766;2.720;2023-03-04T00:09:08;30.10;;;17.80;;
75016;SDS011;63577;39.766;2.720;2023-03-04T00:11:34;29.20;;;17.00;;
75016;SDS011;63577;39.766;2.720;2023-03-04T00:13:59;27.80;;;16.50;;
75016;SDS011;63577;39.766;2.720;2023-03-04T00:16:25;30.10;;;16.30;;
75016;SDS011;63577;39.766;2.720;2023-03-04T00:18:54;24.80;;;14.50;;
75016;SDS011;63577;39.766;2.720;2023-03-04T00:21:20;26.10;;;14.60;;
75016;SDS011;63577;39.766;2.720;2023-03-04T00:23:46;26.40;;;14.40;;
75016;SDS011;63577;39.766;2.720;2023-03-04T00:26:11;23.60;;;13.00;;
75016;SDS011;63577;39.766;2.720;2023-03-04T00:28:37;26.90;;;16.00;;
75016;SDS011;63577;39.766;2.720;2023-03-04T00:31:04;24.70;;;14.50;;
75016;SDS011;63577;39.766;2.720;2023-03-04T00:33:29;20.90;;;12.40;;
75016;SDS011;63577;39.766;2.720;2023-03-04T00:35:55;21.20;;;12.90;;
75016;SDS011;63577;39.766;2.720;2023-03-04T00:38:20;21.90;;;13.60;;
75016;SDS011;63577;39.766;2.720;2023-03-04T00:40:46;21.30;;;12.40;;
75016;SDS011;63577;39.766;2.720;2023-03-04T00:43:11;20.90;;;12.40;;
75016;SDS011;63577;39.766;2.720;2023-03-04T00:45:36;21.10;;;11.70;;
75016;SDS011;63577;39.766;2.720;2023-03-04T00:48:02;22.40;;;12.60;;
75016;SDS011;63577;39.766;2.720;2023-03-04T00:50:27;24.60;;;14.70;;
75016;SDS011;63577;39.766;2.720;2023-03-04T00:52:52;24.20;;;14.10;;
75016;SDS011;63577;39.766;2.720;2023-03-04T00:55:18;20.40;;;12.50;;
75016;SDS011;63577;39.766;2.720;2023-03-04T00:57:43;25.60;;;14.50;;
75016;SDS011;63577;39.766;2.720;2023-03-04T01:00:08;23.00;;;13.30;;
75016;SDS011;63577;39.766;2.720;2023-03-04T01:02:34;19.30;;;11.90;;
75016;SDS011;63577;39.766;2.720;2023-03-04T01:04:59;21.00;;;13.30;;
75016;SDS011;63577;39.766;2.720;2023-03-04T01:07:25;22.60;;;12.90;;
75016;SDS011;63577;39.766;2.720;2023-03-04T01:09:50;22.10;;;13.60;;
75016;SDS011;63577;39.766;2.720;2023-03-04T01:12:15;23.50;;;14.40;;
75016;SDS011;63577;39.766;2.720;2023-03-04T01:14:41;22.10;;;14.40;;
75016;SDS011;63577;39.766;2.720;2023-03-04T01:17:06;19.00;;;11.50;;
75016;SDS011;63577;39.766;2.720;2023-03-04T01:19:31;22.20;;;13.50;;
75016;SDS011;63577;39.766;2.720;2023-03-04T01:21:57;21.20;;;12.20;;
75016;SDS011;63577;39.766;2.720;2023-03-04T01:24:22;17.80;;;11.10;;
75016;SDS011;63577;39.766;2.720;2023-03-04T01:26:47;19.60;;;12.70;;
75016;SDS011;63577;39.766;2.720;2023-03-04T01:29:13;21.90;;;13.70;;
75016;SDS011;63577;39.766;2.720;2023-03-04T01:31:38;20.10;;;12.80;;
75016;SDS011;63577;39.766;2.720;2023-03-04T01:34:03;24.10;;;14.30;;
75016;SDS011;63577;39.766;2.720;2023-03-04T01:36:29;18.30;;;11.90;;
75016;SDS011;63577;39.766;2.720;2023-03-04T01:38:55;19.50;;;11.60;;
75016;SDS011;63577;39.766;2.720;2023-03-04T01:41:22;18.60;;;11.20;;
75016;SDS011;63577;39.766;2.720;2023-03-04T01:43:48;16.20;;;10.20;;
75016;SDS011;63577;39.766;2.720;2023-03-04T01:46:13;17.60;;;10.40;;
75016;SDS011;63577;39.766;2.720;2023-03-04T01:48:39;17.00;;;10.50;;
75016;SDS011;63577;39.766;2.720;2023-03-04T01:51:08;18.10;;;11.20;;
75016;SDS011;63577;39.766;2.720;2023-03-04T01:53:45;16.50;;;9.90;;
75016;SDS011;63577;39.766;2.720;2023-03-04T01:56:14;20.60;;;11.00;;
75016;SDS011;63577;39.766;2.720;2023-03-04T01:58:39;19.50;;;11.90;;
75016;SDS011;63577;39.766;2.720;2023-03-04T02:01:05;18.60;;;11.80;;
75016;SDS011;63577;39.766;2.720;2023-03-04T02:03:30;18.70;;;10.30;;
75016;SDS011;63577;39.766;2.720;2023-03-04T02:05:55;20.10;;;11.90;;
75016;SDS011;63577;39.766;2.720;2023-03-04T02:08:22;21.00;;;11.80;;
75016;SDS011;63577;39.766;2.720;2023-03-04T02:10:48;17.20;;;10.70;;
75016;SDS011;63577;39.766;2.720;2023-03-04T02:13:14;17.40;;;10.40;;
75016;SDS011;63577;39.766;2.720;2023-03-04T02:15:39;19.60;;;10.40;;
75016;SDS011;63577;39.766;2.720;2023-03-04T02:18:19;18.70;;;10.50;;
75016;SDS011;63577;39.766;2.720;2023-03-04T02:23:44;18.60;;;11.00;;
75016;SDS011;63577;39.766;2.720;2023-03-04T02:28:33;19.90;;;11.40;;
75016;SDS011;63577;39.766;2.720;2023-03-04T02:30:59;19.70;;;11.80;;
75016;SDS011;63577;39.766;2.720;2023-03-04T02:33:24;17.80;;;10.10;;
75016;SDS011;63577;39.766;2.720;2023-03-04T02:35:49;18.00;;;9.80;;
75016;SDS011;63577;39.766;2.720;2023-03-04T02:38:15;18.80;;;11.10;;
75016;SDS011;63577;39.766;2.720;2023-03-04T02:40:41;20.40;;;12.10;;
75016;SDS011;63577;39.766;2.720;2023-03-04T02:43:08;26.20;;;16.70;;
75016;SDS011;63577;39.766;2.720;2023-03-04T02:45:38;28.30;;;17.10;;
75016;SDS011;63577;39.766;2.720;2023-03-04T02:48:04;24.80;;;16.10;;
75016;SDS011;63577;39.766;2.720;2023-03-04T02:50:30;25.60;;;15.20;;
75016;SDS011;63577;39.766;2.720;2023-03-04T02:52:57;24.60;;;15.30;;
75016;SDS011;63577;39.766;2.720;2023-03-04T02:55:22;24.50;;;15.20;;
75016;SDS011;63577;39.766;2.720;2023-03-04T02:57:48;26.00;;;15.60;;
75016;SDS011;63577;39.766;2.720;2023-03-04T03:00:13;26.80;;;16.10;;
75016;SDS011;63577;39.766;2.720;2023-03-04T03:02:39;27.90;;;15.50;;
75016;SDS011;63577;39.766;2.720;2023-03-04T03:05:04;29.10;;;15.60;;
75016;SDS011;63577;39.766;2.720;2023-03-04T03:07:30;24.40;;;15.00;;
75016;SDS011;63577;39.766;2.720;2023-03-04T03:09:55;27.80;;;15.90;;
75016;SDS011;63577;39.766;2.720;2023-03-04T03:12:20;28.10;;;16.80;;
75016;SDS011;63577;39.766;2.720;2023-03-04T03:14:46;22.40;;;13.10;;
75016;SDS011;63577;39.766;2.720;2023-03-04T03:17:11;20.20;;;12.50;;
75016;SDS011;63577;39.766;2.720;2023-03-04T03:19:37;22.10;;;14.00;;
75016;SDS011;63577;39.766;2.720;2023-03-04T03:22:02;21.30;;;13.70;;
75016;SDS011;63577;39.766;2.720;2023-03-04T03:24:27;23.70;;;14.30;;
75016;SDS011;63577;39.766;2.720;2023-03-04T03:26:53;25.10;;;15.10;;
75016;SDS011;63577;39.766;2.720;2023-03-04T03:29:18;27.80;;;15.90;;
75016;SDS011;63577;39.766;2.720;2023-03-04T03:31:43;24.70;;;14.50;;
75016;SDS011;63577;39.766;2.720;2023-03-04T03:34:09;23.20;;;14.50;;
75016;SDS011;63577;39.766;2.720;2023-03-04T03:36:34;22.30;;;13.00;;
75016;SDS011;63577;39.766;2.720;2023-03-04T03:38:59;21.50;;;12.40;;
75016;SDS011;63577;39.766;2.720;2023-03-04T03:41:25;20.70;;;12.40;;
75016;SDS011;63577;39.766;2.720;2023-03-04T03:43:50;21.40;;;12.50;;
75016;SDS011;63577;39.766;2.720;2023-03-04T03:46:15;20.30;;;12.20;;
75016;SDS011;63577;39.766;2.720;2023-03-04T03:48:41;19.30;;;11.70;;
75016;SDS011;63577;39.766;2.720;2023-03-04T03:51:06;18.80;;;11.20;;
75016;SDS011;63577;39.766;2.720;2023-03-04T03:53:31;18.30;;;10.60;;
75016;SDS011;63577;39.766;2.720;2023-03-04T03:55:57;20.30;;;11.90;;
75016;SDS011;63577;39.766;2.720;2023-03-04T03:58:23;18.00;;;12.00;;
75016;SDS011;63577;39.766;2.720;2023-03-04T04:00:50;17.10;;;10.20;;
75016;SDS011;63577;39.766;2.720;2023-03-04T04:03:16;17.00;;;10.40;;
75016;SDS011;63577;39.766;2.720;2023-03-04T04:05:41;17.40;;;10.10;;
75016;SDS011;63577;39.766;2.720;2023-03-04T04:08:10;17.00;;;10.40;;
75016;SDS011;63577;39.766;2.720;2023-03-04T04:10:35;19.10;;;10.60;;
75016;SDS011;63577;39.766;2.720;2023-03-04T04:13:00;17.60;;;10.80;;
75016;SDS011;63577;39.766;2.720;2023-03-04T04:15:26;16.40;;;10.80;;
75016;SDS011;63577;39.766;2.720;2023-03-04T04:17:51;16.30;;;10.10;;
75016;SDS011;63577;39.766;2.720;2023-03-04T04:20:17;16.80;;;9.60;;
75016;SDS011;63577;39.766;2.720;2023-03-04T04:22:43;14.90;;;9.20;;
75016;SDS011;63577;39.766;2.720;2023-03-04T04:25:08;16.70;;;10.70;;
75016;SDS011;63577;39.766;2.720;2023-03-04T04:27:34;14.50;;;9.10;;
75016;SDS011;63577;39.766;2.720;2023-03-04T04:30:00;13.40;;;8.30;;
75016;SDS011;63577;39.766;2.720;2023-03-04T04:32:25;11.90;;;8.00;;
75016;SDS011;63577;39.766;2.720;2023-03-04T04:34:51;11.30;;;7.50;;
75016;SDS011;63577;39.766;2.720;2023-03-04T04:37:16;11.90;;;6.90;;
75016;SDS011;63577;39.766;2.720;2023-03-04T04:39:41;12.40;;;7.50;;
75016;SDS011;63577;39.766;2.720;2023-03-04T04:42:08;11.40;;;6.30;;
75016;SDS011;63577;39.766;2.720;2023-03-04T04:44:33;9.60;;;5.80;;
75016;SDS011;63577;39.766;2.720;2023-03-04T04:46:59;9.90;;;5.60;;
75016;SDS011;63577;39.766;2.720;2023-03-04T04:49:24;8.90;;;5.30;;
75016;SDS011;63577;39.766;2.720;2023-03-04T04:51:49;9.80;;;5.10;;
75016;SDS011;63577;39.766;2.720;2023-03-04T04:54:15;9.70;;;5.80;;
75016;SDS011;63577;39.766;2.720;2023-03-04T04:56:40;9.70;;;5.30;;
75016;SDS011;63577;39.766;2.720;2023-03-04T04:59:06;8.70;;;5.10;;
75016;SDS011;63577;39.766;2.720;2023-03-04T05:01:32;10.60;;;5.90;;
75016;SDS011;63577;39.766;2.720;2023-03-04T05:03:58;9.10;;;5.40;;
75016;SDS011;63577;39.766;2.720;2023-03-04T05:06:23;12.20;;;7.10;;
75016;SDS011;63577;39.766;2.720;2023-03-04T05:08:49;10.90;;;6.70;;
75016;SDS011;63577;39.766;2.720;2023-03-04T05:11:15;11.80;;;7.10;;
75016;SDS011;63577;39.766;2.720;2023-03-04T05:13:41;8.80;;;5.80;;
75016;SDS011;63577;39.766;2.720;2023-03-04T05:16:07;11.90;;;6.30;;
75016;SDS011;63577;39.766;2.720;2023-03-04T05:18:32;11.90;;;6.50;;
75016;SDS011;63577;39.766;2.720;2023-03-04T05:20:59;11.60;;;6.20;;
75016;SDS011;63577;39.766;2.720;2023-03-04T05:23:25;11.40;;;5.80;;
75016;SDS011;63577;39.766;2.720;2023-03-04T05:25:50;11.50;;;6.50;;
75016;SDS011;63577;39.766;2.720;2023-03-04T05:28:16;10.40;;;4.90;;
75016;SDS011;63577;39.766;2.720;2023-03-04T05:30:42;8.90;;;4.90;;
75016;SDS011;63577;39.766;2.720;2023-03-04T05:33:08;12.40;;;5.40;;
75016;SDS011;63577;39.766;2.720;2023-03-04T05:35:37;10.60;;;5.60;;
75016;SDS011;63577;39.766;2.720;2023-03-04T05:38:03;12.10;;;5.40;;
75016;SDS011;63577;39.766;2.720;2023-03-04T05:40:29;9.80;;;5.70;;
75016;SDS011;63577;39.766;2.720;2023-03-04T05:42:55;9.20;;;5.40;;
75016;SDS011;63577;39.766;2.720;2023-03-04T05:45:21;9.60;;;5.60;;
75016;SDS011;63577;39.766;2.720;2023-03-04T05:47:46;10.80;;;5.70;;
75016;SDS011;63577;39.766;2.720;2023-03-04T05:50:12;11.50;;;6.10;;
75016;SDS011;63577;39.766;2.720;2023-03-04T05:52:37;9.80;;;5.60;;
75016;SDS011;63577;39.766;2.720;2023-03-04T05:55:02;10.80;;;6.80;;
75016;SDS011;63577;39.766;2.720;2023-03-04T05:57:28;12.50;;;7.80;;
75016;SDS011;63577;39.766;2.720;2023-03-04T05:59:53;11.90;;;7.40;;
75016;SDS011;63577;39.766;2.720;2023-03-04T06:02:18;12.70;;;7.80;;
75016;SDS011;63577;39.766;2.720;2023-03-04T06:04:44;11.40;;;6.70;;
75016;SDS011;63577;39.766;2.720;2023-03-04T06:07:09;11.90;;;6.20;;
75016;SDS011;63577;39.766;2.720;2023-03-04T06:09:35;10.40;;;6.00;;
75016;SDS011;63577;39.766;2.720;2023-03-04T06:12:00;9.80;;;5.40;;
75016;SDS011;63577;39.766;2.720;2023-03-04T06:14:26;10.00;;;6.30;;
75016;SDS011;63577;39.766;2.720;2023-03-04T06:16:51;9.70;;;5.40;;
75016;SDS011;63577;39.766;2.720;2023-03-04T06:19:16;10.50;;;5.30;;
75016;SDS011;63577;39.766;2.720;2023-03-04T06:21:42;10.30;;;5.50;;
75016;SDS011;63577;39.766;2.720;2023-03-04T06:24:07;10.50;;;5.60;;
75016;SDS011;63577;39.766;2.720;2023-03-04T06:26:32;10.70;;;5.90;;
75016;SDS011;63577;39.766;2.720;2023-03-04T06:28:58;11.60;;;6.40;;
75016;SDS011;63577;39.766;2.720;2023-03-04T06:31:23;10.90;;;5.60;;
75016;SDS011;63577;39.766;2.720;2023-03-04T06:33:48;10.30;;;5.80;;
75016;SDS011;63577;39.766;2.720;2023-03-04T06:36:14;11.90;;;6.30;;
75016;SDS011;63577;39.766;2.720;2023-03-04T06:38:39;11.00;;;5.90;;
75016;SDS011;63577;39.766;2.720;2023-03-04T06:41:08;13.30;;;6.60;;
75016;SDS011;63577;39.766;2.720;2023-03-04T06:43:34;10.90;;;6.50;;
75016;SDS011;63577;39.766;2.720;2023-03-04T06:45:59;12.80;;;7.60;;
75016;SDS011;63577;39.766;2.720;2023-03-04T06:48:25;17.20;;;10.40;;
75016;SDS011;63577;39.766;2.720;2023-03-04T06:50:50;31.90;;;20.50;;
75016;SDS011;63577;39.766;2.720;2023-03-04T06:53:15;33.70;;;19.90;;
75016;SDS011;63577;39.766;2.720;2023-03-04T06:55:41;28.80;;;16.70;;
75016;SDS011;63577;39.766;2.720;2023-03-04T06:58:06;23.50;;;14.10;;
75016;SDS011;63577;39.766;2.720;2023-03-04T07:00:31;20.00;;;12.00;;
75016;SDS011;63577;39.766;2.720;2023-03-04T07:02:57;18.60;;;11.50;;
75016;SDS011;63577;39.766;2.720;2023-03-04T07:05:23;21.10;;;11.30;;
75016;SDS011;63577;39.766;2.720;2023-03-04T07:07:48;16.40;;;9.50;;
75016;SDS011;63577;39.766;2.720;2023-03-04T07:10:15;16.40;;;10.10;;
75016;SDS011;63577;39.766;2.720;2023-03-04T07:12:40;14.70;;;8.10;;
75016;SDS011;63577;39.766;2.720;2023-03-04T07:15:06;16.60;;;8.30;;
75016;SDS011;63577;39.766;2.720;2023-03-04T07:17:31;12.30;;;7.50;;
75016;SDS011;63577;39.766;2.720;2023-03-04T07:19:59;14.40;;;8.50;;
75016;SDS011;63577;39.766;2.720;2023-03-04T07:22:24;14.90;;;9.20;;
75016;SDS011;63577;39.766;2.720;2023-03-04T07:24:49;14.40;;;8.80;;
75016;SDS011;63577;39.766;2.720;2023-03-04T07:27:15;14.60;;;8.80;;
75016;SDS011;63577;39.766;2.720;2023-03-04T07:29:40;14.70;;;8.70;;
75016;SDS011;63577;39.766;2.720;2023-03-04T07:32:06;13.20;;;7.80;;
75016;SDS011;63577;39.766;2.720;2023-03-04T07:34:31;14.10;;;8.20;;
75016;SDS011;63577;39.766;2.720;2023-03-04T07:36:57;14.50;;;7.90;;
75016;SDS011;63577;39.766;2.720;2023-03-04T07:39:22;15.00;;;8.40;;
75016;SDS011;63577;39.766;2.720;2023-03-04T07:41:47;13.30;;;8.40;;
75016;SDS011;63577;39.766;2.720;2023-03-04T07:44:13;14.50;;;9.10;;
75016;SDS011;63577;39.766;2.720;2023-03-04T07:46:38;15.90;;;8.80;;
75016;SDS011;63577;39.766;2.720;2023-03-04T07:49:04;14.90;;;9.60;;
75016;SDS011;63577;39.766;2.720;2023-03-04T07:51:29;16.70;;;9.60;;
75016;SDS011;63577;39.766;2.720;2023-03-04T07:53:56;14.80;;;8.90;;
75016;SDS011;63577;39.766;2.720;2023-03-04T07:56:23;13.70;;;9.10;;
75016;SDS011;63577;39.766;2.720;2023-03-04T07:58:49;15.90;;;9.00;;
75016;SDS011;63577;39.766;2.720;2023-03-04T08:01:18;16.20;;;10.00;;
75016;SDS011;63577;39.766;2.720;2023-03-04T08:03:44;16.20;;;8.30;;
75016;SDS011;63577;39.766;2.720;2023-03-04T08:06:11;14.70;;;7.90;;
75016;SDS011;63577;39.766;2.720;2023-03-04T08:08:37;14.10;;;7.70;;
75016;SDS011;63577;39.766;2.720;2023-03-04T08:11:04;13.70;;;7.70;;
75016;SDS011;63577;39.766;2.720;2023-03-04T08:13:30;14.90;;;7.60;;
75016;SDS011;63577;39.766;2.720;2023-03-04T08:15:56;16.00;;;7.90;;
75016;SDS011;63577;39.766;2.720;2023-03-04T08:18:22;12.40;;;6.80;;
75016;SDS011;63577;39.766;2.720;2023-03-04T08:20:47;14.70;;;7.00;;
75016;SDS011;63577;39.766;2.720;2023-03-04T08:23:12;11.10;;;7.00;;
75016;SDS011;63577;39.766;2.720;2023-03-04T08:25:41;11.90;;;7.20;;
75016;SDS011;63577;39.766;2.720;2023-03-04T08:28:07;11.00;;;7.00;;
75016;SDS011;63577;39.766;2.720;2023-03-04T08:30:32;12.60;;;7.10;;
75016;SDS011;63577;39.766;2.720;2023-03-04T08:32:58;12.90;;;7.20;;
75016;SDS011;63577;39.766;2.720;2023-03-04T08:35:23;9.50;;;5.80;;
75016;SDS011;63577;39.766;2.720;2023-03-04T08:37:49;15.40;;;8.30;;
75016;SDS011;63577;39.766;2.720;2023-03-04T08:40:14;15.00;;;8.80;;
75016;SDS011;63577;39.766;2.720;2023-03-04T08:42:40;13.90;;;9.60;;
75016;SDS011;63577;39.766;2.720;2023-03-04T08:45:06;18.30;;;9.50;;
75016;SDS011;63577;39.766;2.720;2023-03-04T08:47:31;14.50;;;9.00;;
75016;SDS011;63577;39.766;2.720;2023-03-04T08:49:57;16.00;;;8.60;;
75016;SDS011;63577;39.766;2.720;2023-03-04T08:52:22;15.90;;;9.10;;
75016;SDS011;63577;39.766;2.720;2023-03-04T08:54:48;12.50;;;8.50;;
75016;SDS011;63577;39.766;2.720;2023-03-04T08:57:13;15.90;;;9.40;;
75016;SDS011;63577;39.766;2.720;2023-03-04T08:59:39;15.80;;;9.70;;
75016;SDS011;63577;39.766;2.720;2023-03-04T09:02:04;14.90;;;9.60;;
75016;SDS011;63577;39.766;2.720;2023-03-04T09:04:29;15.20;;;9.30;;
75016;SDS011;63577;39.766;2.720;2023-03-04T09:06:54;13.90;;;8.80;;
75016;SDS011;63577;39.766;2.720;2023-03-04T09:09:20;14.80;;;7.80;;
75016;SDS011;63577;39.766;2.720;2023-03-04T09:11:45;15.70;;;9.00;;
75016;SDS011;63577;39.766;2.720;2023-03-04T09:14:11;22.50;;;15.20;;
75016;SDS011;63577;39.766;2.720;2023-03-04T09:16:36;27.60;;;18.70;;
75016;SDS011;63577;39.766;2.720;2023-03-04T09:19:01;16.70;;;11.80;;
75016;SDS011;63577;39.766;2.720;2023-03-04T09:21:27;14.50;;;9.40;;
75016;SDS011;63577;39.766;2.720;2023-03-04T09:23:52;14.90;;;9.60;;
75016;SDS011;63577;39.766;2.720;2023-03-04T09:26:21;15.00;;;9.00;;
75016;SDS011;63577;39.766;2.720;2023-03-04T09:28:51;14.20;;;9.00;;
75016;SDS011;63577;39.766;2.720;2023-03-04T09:31:16;17.20;;;9.80;;
75016;SDS011;63577;39.766;2.720;2023-03-04T09:33:42;15.80;;;9.80;;
75016;SDS011;63577;39.766;2.720;2023-03-04T09:36:11;18.70;;;9.50;;
75016;SDS011;63577;39.766;2.720;2023-03-04T09:38:37;14.90;;;9.70;;
75016;SDS011;63577;39.766;2.720;2023-03-04T09:41:03;14.60;;;8.80;;
75016;SDS011;63577;39.766;2.720;2023-03-04T09:43:30;16.00;;;8.40;;
75016;SDS011;63577;39.766;2.720;2023-03-04T09:45:57;16.40;;;8.70;;
75016;SDS011;63577;39.766;2.720;2023-03-04T09:48:26;14.90;;;9.20;;
75016;SDS011;63577;39.766;2.720;2023-03-04T09:51:05;14.40;;;9.00;;
75016;SDS011;63577;39.766;2.720;2023-03-04T09:56:06;17.00;;;10.20;;
75016;SDS011;63577;39.766;2.720;2023-03-04T10:06:21;16.50;;;9.60;;
75016;SDS011;63577;39.766;2.720;2023-03-04T10:09:00;16.40;;;10.00;;
75016;SDS011;63577;39.766;2.720;2023-03-04T10:17:19;18.00;;;11.30;;
75016;SDS011;63577;39.766;2.720;2023-03-04T10:21:50;18.90;;;10.40;;
75016;SDS011;63577;39.766;2.720;2023-03-04T10:24:17;18.00;;;10.50;;
75016;SDS011;63577;39.766;2.720;2023-03-04T10:26:47;16.30;;;10.60;;
75016;SDS011;63577;39.766;2.720;2023-03-04T10:29:18;26.20;;;18.00;;
75016;SDS011;63577;39.766;2.720;2023-03-04T10:31:44;18.50;;;10.40;;
75016;SDS011;63577;39.766;2.720;2023-03-04T10:34:11;13.80;;;9.20;;
75016;SDS011;63577;39.766;2.720;2023-03-04T10:36:38;14.60;;;9.80;;
75016;SDS011;63577;39.766;2.720;2023-03-04T10:39:10;15.00;;;9.20;;
75016;SDS011;63577;39.766;2.720;2023-03-04T10:41:36;17.90;;;9.80;;
75016;SDS011;63577;39.766;2.720;2023-03-04T10:44:03;13.40;;;8.80;;
75016;SDS011;63577;39.766;2.720;2023-03-04T10:46:29;19.60;;;9.00;;
75016;SDS011;63577;39.766;2.720;2023-03-04T10:48:55;16.50;;;8.90;;
75016;SDS011;63577;39.766;2.720;2023-03-04T10:51:22;15.40;;;8.60;;
75016;SDS011;63577;39.766;2.720;2023-03-04T10:53:49;17.20;;;9.30;;
75016;SDS011;63577;39.766;2.720;2023-03-04T10:56:31;16.60;;;8.60;;
75016;SDS011;63577;39.766;2.720;2023-03-04T11:01:42;20.80;;;14.20;;
75016;SDS011;63577;39.766;2.720;2023-03-04T11:04:16;17.90;;;10.60;;
75016;SDS011;63577;39.766;2.720;2023-03-04T11:06:45;14.30;;;8.80;;
75016;SDS011;63577;39.766;2.720;2023-03-04T11:09:21;14.90;;;8.60;;
75016;SDS011;63577;39.766;2.720;2023-03-04T11:11:47;15.70;;;10.00;;
75016;SDS011;63577;39.766;2.720;2023-03-04T11:14:34;13.70;;;8.20;;
75016;SDS011;63577;39.766;2.720;2023-03-04T11:17:01;16.60;;;9.00;;
75016;SDS011;63577;39.766;2.720;2023-03-04T11:19:34;21.90;;;14.00;;
75016;SDS011;63577;39.766;2.720;2023-03-04T11:22:01;25.40;;;16.30;;
75016;SDS011;63577;39.766;2.720;2023-03-04T11:24:27;18.10;;;10.60;;
75016;SDS011;63577;39.766;2.720;2023-03-04T11:29:30;17.10;;;9.80;;
75016;SDS011;63577;39.766;2.720;2023-03-04T11:31:59;17.80;;;11.10;;
75016;SDS011;63577;39.766;2.720;2023-03-04T11:37:00;13.50;;;8.60;;
75016;SDS011;63577;39.766;2.720;2023-03-04T11:39:40;13.10;;;8.60;;
75016;SDS011;63577;39.766;2.720;2023-03-04T11:42:16;16.30;;;9.60;;
75016;SDS011;63577;39.766;2.720;2023-03-04T11:44:45;14.40;;;8.20;;
75016;SDS011;63577;39.766;2.720;2023-03-04T11:49:54;16.30;;;8.70;;
75016;SDS011;63577;39.766;2.720;2023-03-04T12:10:54;43.20;;;24.70;;
75016;SDS011;63577;39.766;2.720;2023-03-04T12:16:00;16.00;;;7.10;;
75016;SDS011;63577;39.766;2.720;2023-03-04T12:25:59;15.60;;;7.60;;
75016;SDS011;63577;39.766;2.720;2023-03-04T12:28:37;22.30;;;11.80;;
75016;SDS011;63577;39.766;2.720;2023-03-04T12:39:05;15.70;;;9.80;;
75016;SDS011;63577;39.766;2.720;2023-03-04T12:41:42;14.00;;;8.20;;
75016;SDS011;63577;39.766;2.720;2023-03-04T12:49:54;20.30;;;12.10;;
75016;SDS011;63577;39.766;2.720;2023-03-04T12:54:55;18.70;;;11.70;;
75016;SDS011;63577;39.766;2.720;2023-03-04T12:57:23;18.70;;;10.40;;
75016;SDS011;63577;39.766;2.720;2023-03-04T13:12:49;17.50;;;9.50;;
75016;SDS011;63577;39.766;2.720;2023-03-04T13:15:17;12.10;;;6.80;;
75016;SDS011;63577;39.766;2.720;2023-03-04T13:17:47;12.40;;;7.80;;
75016;SDS011;63577;39.766;2.720;2023-03-04T13:22:44;11.30;;;6.70;;
75016;SDS011;63577;39.766;2.720;2023-03-04T13:28:12;10.70;;;7.30;;
75016;SDS011;63577;39.766;2.720;2023-03-04T13:30:41;9.70;;;5.90;;
75016;SDS011;63577;39.766;2.720;2023-03-04T13:41:05;12.80;;;8.00;;
75016;SDS011;63577;39.766;2.720;2023-03-04T13:43:37;15.40;;;9.40;;
75016;SDS011;63577;39.766;2.720;2023-03-04T13:48:32;13.40;;;9.20;;
75016;SDS011;63577;39.766;2.720;2023-03-04T13:51:00;12.50;;;7.00;;
75016;SDS011;63577;39.766;2.720;2023-03-04T13:56:04;13.30;;;6.90;;
75016;SDS011;63577;39.766;2.720;2023-03-04T13:58:31;57.70;;;32.10;;
75016;SDS011;63577;39.766;2.720;2023-03-04T14:00:57;17.40;;;10.10;;
75016;SDS011;63577;39.766;2.720;2023-03-04T14:03:26;15.40;;;8.60;;
75016;SDS011;63577;39.766;2.720;2023-03-04T14:08:53;11.50;;;5.40;;
75016;SDS011;63577;39.766;2.720;2023-03-04T14:11:26;14.00;;;8.00;;
75016;SDS011;63577;39.766;2.720;2023-03-04T14:13:52;14.70;;;7.40;;
75016;SDS011;63577;39.766;2.720;2023-03-04T14:16:19;9.60;;;5.50;;
75016;SDS011;63577;39.766;2.720;2023-03-04T14:18:55;9.70;;;5.40;;
75016;SDS011;63577;39.766;2.720;2023-03-04T14:21:20;10.40;;;5.80;;
75016;SDS011;63577;39.766;2.720;2023-03-04T14:23:45;13.70;;;7.90;;
75016;SDS011;63577;39.766;2.720;2023-03-04T14:26:23;9.60;;;5.80;;
75016;SDS011;63577;39.766;2.720;2023-03-04T14:28:49;10.60;;;6.20;;
75016;SDS011;63577;39.766;2.720;2023-03-04T14:31:19;9.00;;;6.30;;
75016;SDS011;63577;39.766;2.720;2023-03-04T14:33:46;10.60;;;6.00;;
75016;SDS011;63577;39.766;2.720;2023-03-04T14:36:14;10.00;;;5.60;;
75016;SDS011;63577;39.766;2.720;2023-03-04T14:38:41;11.10;;;6.30;;
75016;SDS011;63577;39.766;2.720;2023-03-04T14:43:40;11.80;;;6.70;;
75016;SDS011;63577;39.766;2.720;2023-03-04T14:46:10;9.80;;;5.60;;
75016;SDS011;63577;39.766;2.720;2023-03-04T14:48:37;11.30;;;7.10;;
75016;SDS011;63577;39.766;2.720;2023-03-04T14:51:02;10.50;;;6.30;;
75016;SDS011;63577;39.766;2.720;2023-03-04T14:53:29;9.50;;;6.30;;
75016;SDS011;63577;39.766;2.720;2023-03-04T14:58:30;11.50;;;6.30;;
75016;SDS011;63577;39.766;2.720;2023-03-04T15:03:41;9.00;;;5.10;;
75016;SDS011;63577;39.766;2.720;2023-03-04T15:06:21;9.10;;;5.40;;
75016;SDS011;63577;39.766;2.720;2023-03-04T15:08:53;8.20;;;4.90;;
75016;SDS011;63577;39.766;2.720;2023-03-04T15:11:23;9.70;;;5.30;;
75016;SDS011;63577;39.766;2.720;2023-03-04T15:13:50;8.40;;;5.20;;
75016;SDS011;63577;39.766;2.720;2023-03-04T15:16:18;10.90;;;6.60;;
75016;SDS011;63577;39.766;2.720;2023-03-04T15:19:00;10.20;;;6.00;;
75016;SDS011;63577;39.766;2.720;2023-03-04T15:21:31;12.50;;;7.60;;
75016;SDS011;63577;39.766;2.720;2023-03-04T15:23:57;11.60;;;8.40;;
75016;SDS011;63577;39.766;2.720;2023-03-04T15:26:23;18.90;;;16.10;;
75016;SDS011;63577;39.766;2.720;2023-03-04T15:28:48;15.60;;;11.20;;
75016;SDS011;63577;39.766;2.720;2023-03-04T15:31:23;12.30;;;9.70;;
75016;SDS011;63577;39.766;2.720;2023-03-04T15:33:50;10.20;;;6.90;;
75016;SDS011;63577;39.766;2.720;2023-03-04T15:36:19;11.60;;;6.70;;
75016;SDS011;63577;39.766;2.720;2023-03-04T15:38:47;11.00;;;5.60;;
75016;SDS011;63577;39.766;2.720;2023-03-04T15:41:14;12.70;;;8.90;;
75016;SDS011;63577;39.766;2.720;2023-03-04T15:43:41;11.10;;;7.10;;
75016;SDS011;63577;39.766;2.720;2023-03-04T15:46:07;10.90;;;6.90;;
75016;SDS011;63577;39.766;2.720;2023-03-04T15:48:33;9.80;;;5.60;;
75016;SDS011;63577;39.766;2.720;2023-03-04T15:50:59;12.90;;;7.20;;
75016;SDS011;63577;39.766;2.720;2023-03-04T15:53:32;9.80;;;6.70;;
75016;SDS011;63577;39.766;2.720;2023-03-04T15:56:00;11.70;;;7.00;;
75016;SDS011;63577;39.766;2.720;2023-03-04T15:58:26;11.30;;;6.80;;
75016;SDS011;63577;39.766;2.720;2023-03-04T16:00:52;10.90;;;6.90;;
75016;SDS011;63577;39.766;2.720;2023-03-04T16:03:19;13.90;;;6.80;;
75016;SDS011;63577;39.766;2.720;2023-03-04T16:05:48;14.50;;;9.30;;
75016;SDS011;63577;39.766;2.720;2023-03-04T16:08:14;12.10;;;7.90;;
75016;SDS011;63577;39.766;2.720;2023-03-04T16:10:40;12.90;;;7.60;;
75016;SDS011;63577;39.766;2.720;2023-03-04T16:13:18;13.10;;;8.30;;
75016;SDS011;63577;39.766;2.720;2023-03-04T16:15:44;16.40;;;9.30;;
75016;SDS011;63577;39.766;2.720;2023-03-04T16:18:10;12.50;;;7.80;;
75016;SDS011;63577;39.766;2.720;2023-03-04T16:20:36;15.40;;;9.10;;
75016;SDS011;63577;39.766;2.720;2023-03-04T16:23:02;10.70;;;6.60;;
75016;SDS011;63577;39.766;2.720;2023-03-04T16:25:28;12.60;;;7.00;;
75016;SDS011;63577;39.766;2.720;2023-03-04T16:27:55;12.00;;;8.20;;
75016;SDS011;63577;39.766;2.720;2023-03-04T16:30:22;12.30;;;8.20;;